Time,TemperatureF,DewpointF,PressureIn,WindDirection,WindDirectionDegrees,WindSpeedMPH,WindSpeedGustMPH,Humidity,HourlyPrecipIn,Conditions,Clouds,dailyrainin,SoftwareType,DateUTC
2013-05-19 00:02:00,64.5,62.4,29.98,ENE,78,0.0,0.0,93,0.00,,,0.03,Wunderground v.1.15,2013-05-19 04:02:00,
2013-05-19 00:11:00,64.4,62.3,29.99,ENE,78,0.0,0.0,93,0.00,,,0.00,Wunderground v.1.15,2013-05-19 04:11:00,
2013-05-19 00:21:00,64.4,62.6,29.99,ENE,78,0.0,0.0,94,0.00,,,0.00,Wunderground v.1.15,2013-05-19 04:21:00,
2013-05-19 00:31:00,64.1,62.3,29.98,ENE,78,0.0,0.0,94,0.00,,,0.00,Wunderground v.1.15,2013-05-19 04:31:00,
2013-05-19 00:41:00,63.7,61.6,29.98,ENE,78,0.0,0.0,93,0.00,,,0.00,Wunderground v.1.15,2013-05-19 04:41:00,
2013-05-19 00:51:00,63.9,62.1,29.98,ENE,78,0.0,0.0,94,0.00,,,0.00,Wunderground v.1.15,2013-05-19 04:51:00,
2013-05-19 01:01:00,63.7,61.9,29.98,ENE,78,0.0,0.0,94,0.00,,,0.00,Wunderground v.1.15,2013-05-19 05:01:00,
2013-05-19 01:11:00,63.3,61.5,29.98,ENE,78,0.0,0.0,94,0.00,,,0.00,Wunderground v.1.15,2013-05-19 05:11:00,
2013-05-19 01:21:00,63.0,61.2,29.98,ENE,78,0.0,0.0,94,0.00,,,0.00,Wunderground v.1.15,2013-05-19 05:21:00,
2013-05-19 01:31:00,63.0,61.2,29.98,ENE,78,0.0,0.0,94,0.00,,,0.00,Wunderground v.1.15,2013-05-19 05:31:00,
2013-05-19 01:41:00,62.7,60.9,29.97,ENE,78,0.0,0.0,94,0.00,,,0.00,Wunderground v.1.15,2013-05-19 05:41:00,
2013-05-19 01:51:00,62.9,61.4,29.97,ENE,78,0.0,0.0,95,0.00,,,0.00,Wunderground v.1.15,2013-05-19 05:51:00,
2013-05-19 02:01:00,62.6,60.8,29.96,ENE,78,0.0,0.0,94,0.00,,,0.00,Wunderground v.1.15,2013-05-19 06:01:00,
2013-05-19 02:11:00,62.4,60.7,29.96,ENE,78,0.0,0.0,94,0.00,,,0.00,Wunderground v.1.15,2013-05-19 06:11:00,
2013-05-19 02:22:00,62.2,60.8,29.96,ENE,78,0.0,0.0,95,0.00,,,0.00,Wunderground v.1.15,2013-05-19 06:22:00,
2013-05-19 02:31:00,62.0,60.6,29.95,ENE,78,0.0,0.0,95,0.00,,,0.00,Wunderground v.1.15,2013-05-19 06:31:00,
2013-05-19 02:41:00,61.8,60.4,29.95,ENE,78,0.0,0.0,95,0.00,,,0.00,Wunderground v.1.15,2013-05-19 06:41:00,
2013-05-19 02:47:00,61.9,60.5,29.95,ENE,78,0.0,0.0,95,0.00,,,0.00,Wunderground v.1.15,2013-05-19 06:47:00,
2013-05-19 03:01:00,62.1,60.7,29.96,ENE,78,0.0,0.0,95,0.00,,,0.00,Wunderground v.1.15,2013-05-19 07:01:00,
2013-05-19 03:11:00,62.2,60.8,29.96,ENE,78,0.0,0.0,95,0.00,,,0.00,Wunderground v.1.15,2013-05-19 07:11:00,
2013-05-19 03:21:00,62.2,60.8,29.96,ENE,78,0.0,0.0,95,0.00,,,0.00,Wunderground v.1.15,2013-05-19 07:21:00,
2013-05-19 03:32:00,61.6,60.2,29.96,ENE,78,0.0,0.0,95,0.00,,,0.00,Wunderground v.1.15,2013-05-19 07:32:00,
2013-05-19 03:37:00,61.3,59.9,29.96,ENE,78,0.0,0.0,95,0.00,,,0.00,Wunderground v.1.15,2013-05-19 07:37:00,
2013-05-19 03:51:00,61.3,59.9,29.96,ENE,78,0.0,0.0,95,0.00,,,0.00,Wunderground v.1.15,2013-05-19 07:51:00,
2013-05-19 04:01:00,61.0,59.6,29.96,ENE,78,0.0,0.0,95,0.00,,,0.00,Wunderground v.1.15,2013-05-19 08:01:00,
2013-05-19 04:12:00,61.3,59.9,29.96,ENE,78,0.0,0.0,95,0.00,,,0.00,Wunderground v.1.15,2013-05-19 08:12:00,
2013-05-19 04:21:00,61.4,60.2,29.97,ENE,78,0.0,0.0,96,0.00,,,0.00,Wunderground v.1.15,2013-05-19 08:21:00,
2013-05-19 04:32:00,61.4,60.2,29.97,ENE,78,0.0,0.0,96,0.00,,,0.00,Wunderground v.1.15,2013-05-19 08:32:00,
2013-05-19 04:42:00,61.3,60.2,29.97,ENE,78,0.0,0.0,96,0.00,,,0.00,Wunderground v.1.15,2013-05-19 08:42:00,
2013-05-19 04:51:00,61.4,60.2,29.98,ENE,78,0.0,0.0,96,0.00,,,0.00,Wunderground v.1.15,2013-05-19 08:51:00,
2013-05-19 05:01:00,61.9,60.7,29.98,ENE,78,0.0,0.0,96,0.00,,,0.00,Wunderground v.1.15,2013-05-19 09:01:00,
2013-05-19 05:11:00,62.2,61.0,29.98,ENE,78,0.0,0.0,96,0.00,,,0.00,Wunderground v.1.15,2013-05-19 09:11:00,
2013-05-19 05:21:00,62.7,61.5,29.98,ENE,78,0.0,0.0,96,0.00,,,0.00,Wunderground v.1.15,2013-05-19 09:21:00,
2013-05-19 05:31:00,62.7,61.5,29.98,ENE,78,0.0,0.0,96,0.00,,,0.00,Wunderground v.1.15,2013-05-19 09:31:00,
2013-05-19 05:41:00,61.8,60.6,29.98,ENE,78,0.0,0.0,96,0.00,,,0.00,Wunderground v.1.15,2013-05-19 09:41:00,
2013-05-19 05:47:00,61.9,60.7,29.98,ENE,78,0.0,0.0,96,0.00,,,0.00,Wunderground v.1.15,2013-05-19 09:47:00,
2013-05-19 06:01:00,62.9,61.7,29.99,ENE,78,0.0,0.0,96,0.00,,,0.00,Wunderground v.1.15,2013-05-19 10:01:00,
2013-05-19 06:11:00,63.1,61.9,29.99,ENE,78,0.0,0.0,96,0.00,,,0.00,Wunderground v.1.15,2013-05-19 10:11:00,
2013-05-19 06:21:00,63.2,62.0,29.99,ENE,78,0.0,0.0,96,0.00,,,0.00,Wunderground v.1.15,2013-05-19 10:21:00,
2013-05-19 06:31:00,63.3,62.1,29.99,ENE,78,0.0,0.0,96,0.00,,,0.00,Wunderground v.1.15,2013-05-19 10:31:00,
2013-05-19 06:42:00,63.3,62.1,29.98,ENE,78,1.0,1.0,96,0.00,,,0.00,Wunderground v.1.15,2013-05-19 10:42:00,
2013-05-19 06:52:00,63.3,62.1,29.98,ENE,78,1.0,1.0,96,0.00,,,0.00,Wunderground v.1.15,2013-05-19 10:52:00,
2013-05-19 07:01:00,63.3,62.1,29.98,ENE,78,0.0,1.0,96,0.00,,,0.00,Wunderground v.1.15,2013-05-19 11:01:00,
2013-05-19 07:11:00,63.3,62.1,29.98,ENE,78,1.0,1.0,96,0.00,,,0.00,Wunderground v.1.15,2013-05-19 11:11:00,
2013-05-19 07:21:00,63.4,62.2,29.98,ENE,78,1.0,1.0,96,0.00,,,0.00,Wunderground v.1.15,2013-05-19 11:21:00,
2013-05-19 07:31:00,63.5,62.3,29.97,East,90,1.0,2.0,96,0.00,,,0.00,Wunderground v.1.15,2013-05-19 11:31:00,
2013-05-19 07:41:00,63.6,62.4,29.97,East,91,2.0,2.0,96,0.00,,,0.00,Wunderground v.1.15,2013-05-19 11:41:00,
2013-05-19 07:51:00,63.7,62.5,29.98,East,91,1.0,2.0,96,0.00,,,0.00,Wunderground v.1.15,2013-05-19 11:51:00,
2013-05-19 08:02:00,63.8,62.6,29.98,East,91,2.0,2.0,96,0.00,,,0.00,Wunderground v.1.15,2013-05-19 12:02:00,
2013-05-19 08:11:00,63.9,62.7,29.99,East,91,0.0,0.0,96,0.00,,,0.00,Wunderground v.1.15,2013-05-19 12:11:00,
2013-05-19 08:21:00,64.2,63.0,29.99,East,91,0.0,2.0,96,0.00,,,0.00,Wunderground v.1.15,2013-05-19 12:21:00,
2013-05-19 08:31:00,64.3,63.1,29.99,East,91,2.0,2.0,96,0.00,,,0.00,Wunderground v.1.15,2013-05-19 12:31:00,
2013-05-19 08:41:00,64.3,63.1,29.99,East,91,3.0,3.0,96,0.00,,,0.00,Wunderground v.1.15,2013-05-19 12:41:00,
2013-05-19 08:52:00,64.5,63.3,30.00,East,91,2.0,2.0,96,0.00,,,0.00,Wunderground v.1.15,2013-05-19 12:52:00,
2013-05-19 09:02:00,64.7,63.5,30.00,East,91,0.0,0.0,96,0.00,,,0.00,Wunderground v.1.15,2013-05-19 13:02:00,
2013-05-19 09:11:00,64.9,63.7,30.00,East,91,0.0,0.0,96,0.00,,,0.00,Wunderground v.1.15,2013-05-19 13:11:00,
2013-05-19 09:21:00,65.1,63.9,30.00,East,91,0.0,0.0,96,0.00,,,0.00,Wunderground v.1.15,2013-05-19 13:21:00,
2013-05-19 09:31:00,65.3,64.1,30.00,East,91,0.0,3.0,96,0.00,,,0.00,Wunderground v.1.15,2013-05-19 13:31:00,
2013-05-19 09:42:00,65.6,64.4,30.00,East,91,1.0,1.0,96,0.00,,,0.00,Wunderground v.1.15,2013-05-19 13:42:00,
2013-05-19 09:51:00,65.9,65.0,30.00,East,91,1.0,3.0,97,0.00,,,0.00,Wunderground v.1.15,2013-05-19 13:51:00,
2013-05-19 10:01:00,66.3,65.1,30.00,East,96,2.0,3.0,96,0.00,,,0.00,Wunderground v.1.15,2013-05-19 14:01:00,
2013-05-19 10:12:00,67.3,66.4,30.00,SSE,165,1.0,4.0,97,0.00,,,0.00,Wunderground v.1.15,2013-05-19 14:12:00,
2013-05-19 10:22:00,67.7,66.8,30.00,ESE,113,2.0,7.0,97,0.00,,,0.00,Wunderground v.1.15,2013-05-19 14:22:00,
2013-05-19 10:32:00,68.3,67.1,30.00,South,179,3.0,3.0,96,0.00,,,0.00,Wunderground v.1.15,2013-05-19 14:32:00,
2013-05-19 10:42:00,69.6,68.4,30.01,SE,135,2.0,2.0,96,0.00,,,0.00,Wunderground v.1.15,2013-05-19 14:42:00,
2013-05-19 10:51:00,70.2,68.1,30.01,SE,128,1.0,1.0,93,0.00,,,0.00,Wunderground v.1.15,2013-05-19 14:51:00,
2013-05-19 11:01:00,71.1,67.7,30.01,SE,141,2.0,5.0,89,0.00,,,0.00,Wunderground v.1.15,2013-05-19 15:01:00,
2013-05-19 11:11:00,71.9,68.2,30.00,SSE,155,2.0,3.0,88,0.00,,,0.00,Wunderground v.1.15,2013-05-19 15:11:00,
2013-05-19 11:21:00,73.1,68.7,30.01,SE,131,4.0,4.0,86,0.00,,,0.00,Wunderground v.1.15,2013-05-19 15:21:00,
2013-05-19 11:32:00,73.6,67.8,30.01,South,190,3.0,3.0,82,0.00,,,0.00,Wunderground v.1.15,2013-05-19 15:32:00,
2013-05-19 11:42:00,72.8,67.3,30.00,NW,309,2.0,2.0,83,0.00,,,0.00,Wunderground v.1.15,2013-05-19 15:42:00,
2013-05-19 11:51:00,72.1,67.3,30.01,East,96,2.0,3.0,85,0.00,,,0.00,Wunderground v.1.15,2013-05-19 15:51:00,
2013-05-19 12:01:00,72.1,67.0,30.01,ENE,71,1.0,1.0,84,0.00,,,0.00,Wunderground v.1.15,2013-05-19 16:01:00,
2013-05-19 12:11:00,72.4,66.9,30.00,ENE,76,0.0,0.0,83,0.00,,,0.00,Wunderground v.1.15,2013-05-19 16:11:00,
2013-05-19 12:21:00,73.0,67.2,30.00,SSE,157,2.0,3.0,82,0.00,,,0.00,Wunderground v.1.15,2013-05-19 16:21:00,
2013-05-19 12:31:00,74.3,67.0,29.99,SSE,148,4.0,4.0,78,0.00,,,0.00,Wunderground v.1.15,2013-05-19 16:31:00,
2013-05-19 12:41:00,75.1,68.1,29.99,SSW,193,3.0,6.0,79,0.00,,,0.00,Wunderground v.1.15,2013-05-19 16:41:00,
2013-05-19 12:51:00,75.2,67.1,29.98,SSW,209,5.0,5.0,76,0.00,,,0.00,Wunderground v.1.15,2013-05-19 16:51:00,
2013-05-19 13:01:00,76.2,67.7,29.98,WNW,298,3.0,3.0,75,0.00,,,0.00,Wunderground v.1.15,2013-05-19 17:01:00,
2013-05-19 13:11:00,76.2,68.5,29.98,South,176,1.0,1.0,77,0.00,,,0.00,Wunderground v.1.15,2013-05-19 17:11:00,
2013-05-19 13:21:00,76.3,67.4,29.98,South,184,0.0,0.0,74,0.00,,,0.00,Wunderground v.1.15,2013-05-19 17:21:00,
2013-05-19 13:31:00,76.0,66.7,29.97,South,184,1.0,1.0,73,0.00,,,0.00,Wunderground v.1.15,2013-05-19 17:31:00,
2013-05-19 13:42:00,75.9,67.8,29.97,South,184,1.0,1.0,76,0.00,,,0.00,Wunderground v.1.15,2013-05-19 17:42:00,
2013-05-19 13:51:00,76.6,68.1,29.96,NE,51,1.0,2.0,75,0.00,,,0.00,Wunderground v.1.15,2013-05-19 17:51:00,
2013-05-19 14:02:00,77.2,67.1,29.95,East,90,1.0,2.0,71,0.00,,,0.00,Wunderground v.1.15,2013-05-19 18:02:00,
2013-05-19 14:12:00,78.0,68.2,29.95,NE,55,2.0,2.0,72,0.00,,,0.00,Wunderground v.1.15,2013-05-19 18:12:00,
2013-05-19 14:21:00,78.3,66.0,29.94,ENE,59,2.0,2.0,66,0.00,,,0.00,Wunderground v.1.15,2013-05-19 18:21:00,
2013-05-19 14:32:00,78.2,66.8,29.94,East,90,2.0,2.0,68,0.00,,,0.00,Wunderground v.1.15,2013-05-19 18:32:00,
2013-05-19 14:42:00,79.4,69.2,29.93,East,90,1.0,3.0,71,0.00,,,0.00,Wunderground v.1.15,2013-05-19 18:42:00,
2013-05-19 14:51:00,79.9,67.1,29.93,East,98,2.0,2.0,65,0.00,,,0.00,Wunderground v.1.15,2013-05-19 18:51:00,
2013-05-19 15:01:00,79.7,66.9,29.93,East,84,3.0,3.0,65,0.00,,,0.00,Wunderground v.1.15,2013-05-19 19:01:00,
2013-05-19 15:11:00,80.4,68.0,29.93,NE,46,2.0,2.0,66,0.00,,,0.00,Wunderground v.1.15,2013-05-19 19:11:00,
2013-05-19 15:21:00,80.2,66.5,29.92,ESE,105,3.0,3.0,63,0.00,,,0.00,Wunderground v.1.15,2013-05-19 19:21:00,
2013-05-19 15:32:00,78.9,65.7,29.93,ESE,123,5.0,5.0,64,0.00,,,0.00,Wunderground v.1.15,2013-05-19 19:32:00,
2013-05-19 15:42:00,78.7,67.2,29.92,ESE,121,2.0,3.0,68,0.00,,,0.00,Wunderground v.1.15,2013-05-19 19:42:00,
2013-05-19 15:52:00,79.3,67.4,29.92,East,94,3.0,3.0,67,0.00,,,0.00,Wunderground v.1.15,2013-05-19 19:52:00,
2013-05-19 16:02:00,79.0,68.0,29.92,East,99,4.0,6.0,69,0.00,,,0.00,Wunderground v.1.15,2013-05-19 20:02:00,
2013-05-19 16:11:00,79.6,68.5,29.92,ESE,113,5.0,5.0,69,0.00,,,0.00,Wunderground v.1.15,2013-05-19 20:11:00,
2013-05-19 16:21:00,80.1,66.4,29.91,ESE,108,4.0,7.0,63,0.00,,,0.00,Wunderground v.1.15,2013-05-19 20:21:00,
2013-05-19 16:31:00,80.5,66.7,29.91,East,94,4.0,5.0,63,0.00,,,0.00,Wunderground v.1.15,2013-05-19 20:31:00,
2013-05-19 16:41:00,80.2,66.5,29.92,ESE,105,5.0,5.0,63,0.00,,,0.00,Wunderground v.1.15,2013-05-19 20:41:00,
2013-05-19 16:51:00,80.3,68.3,29.92,ESE,117,5.0,5.0,67,0.00,,,0.00,Wunderground v.1.15,2013-05-19 20:51:00,
2013-05-19 17:01:00,79.9,67.1,29.92,SW,227,3.0,4.0,65,0.00,,,0.00,Wunderground v.1.15,2013-05-19 21:01:00,
2013-05-19 17:12:00,80.3,67.9,29.93,SE,144,2.0,2.0,66,0.00,,,0.00,Wunderground v.1.15,2013-05-19 21:12:00,
2013-05-19 17:21:00,80.3,67.5,29.92,SE,128,4.0,4.0,65,0.00,,,0.00,Wunderground v.1.15,2013-05-19 21:21:00,
2013-05-19 17:31:00,80.4,68.0,29.92,SE,127,2.0,2.0,66,0.00,,,0.00,Wunderground v.1.15,2013-05-19 21:31:00,
2013-05-19 17:41:00,81.0,67.7,29.91,South,177,3.0,3.0,64,0.00,,,0.00,Wunderground v.1.15,2013-05-19 21:41:00,
2013-05-19 17:47:00,81.3,67.5,29.91,South,177,2.0,3.0,63,0.00,,,0.00,Wunderground v.1.15,2013-05-19 21:47:00,
2013-05-19 18:01:00,81.3,68.0,29.91,SSW,200,2.0,3.0,64,0.00,,,0.00,Wunderground v.1.15,2013-05-19 22:01:00,
2013-05-19 18:12:00,80.7,67.4,29.91,ESE,120,5.0,7.0,64,0.00,,,0.00,Wunderground v.1.15,2013-05-19 22:12:00,
2013-05-19 18:21:00,81.0,68.1,29.90,South,174,3.0,3.0,65,0.00,,,0.00,Wunderground v.1.15,2013-05-19 22:21:00,
2013-05-19 18:31:00,81.2,67.9,29.90,South,173,2.0,2.0,64,0.00,,,0.00,Wunderground v.1.15,2013-05-19 22:31:00,
2013-05-19 18:42:00,80.9,67.1,29.91,SSE,162,3.0,3.0,63,0.00,,,0.00,Wunderground v.1.15,2013-05-19 22:42:00,
2013-05-19 18:51:00,80.8,67.5,29.90,ESE,109,3.0,4.0,64,0.00,,,0.00,Wunderground v.1.15,2013-05-19 22:51:00,
2013-05-19 19:01:00,80.7,66.5,29.90,SSE,157,3.0,3.0,62,0.00,,,0.00,Wunderground v.1.15,2013-05-19 23:01:00,
2013-05-19 19:11:00,80.6,66.8,29.89,SE,144,2.0,2.0,63,0.00,,,0.00,Wunderground v.1.15,2013-05-19 23:11:00,
2013-05-19 19:21:00,80.2,67.4,29.89,SE,134,2.0,2.0,65,0.00,,,0.00,Wunderground v.1.15,2013-05-19 23:21:00,
2013-05-19 19:31:00,80.0,67.6,29.90,SE,130,1.0,1.0,66,0.00,,,0.00,Wunderground v.1.15,2013-05-19 23:31:00,
2013-05-19 19:42:00,79.7,67.3,29.90,SE,131,1.0,1.0,66,0.00,,,0.00,Wunderground v.1.15,2013-05-19 23:42:00,
2013-05-19 19:51:00,79.2,66.9,29.90,ESE,123,1.0,2.0,66,0.00,,,0.00,Wunderground v.1.15,2013-05-19 23:51:00,
2013-05-19 19:57:00,78.8,66.9,29.90,ESE,114,2.0,2.0,67,0.00,,,0.00,Wunderground v.1.15,2013-05-19 23:57:00,
2013-05-19 20:11:00,77.6,67.0,29.90,ESE,114,1.0,1.0,70,0.00,,,0.00,Wunderground v.1.15,2013-05-20 00:11:00,
2013-05-19 20:17:00,77.1,67.4,29.90,ESE,114,1.0,1.0,72,0.00,,,0.00,Wunderground v.1.15,2013-05-20 00:17:00,
2013-05-19 20:32:00,75.5,66.6,29.90,ESE,114,1.0,2.0,74,0.00,,,0.00,Wunderground v.1.15,2013-05-20 00:32:00,
2013-05-19 20:42:00,74.9,66.8,29.91,ESE,113,1.0,1.0,76,0.00,,,0.00,Wunderground v.1.15,2013-05-20 00:42:00,
2013-05-19 20:51:00,74.2,66.5,29.90,ESE,114,0.0,0.0,77,0.00,,,0.00,Wunderground v.1.15,2013-05-20 00:51:00,
2013-05-19 21:01:00,73.4,66.1,29.90,ESE,113,1.0,2.0,78,0.00,,,0.00,Wunderground v.1.15,2013-05-20 01:01:00,
2013-05-19 21:12:00,72.9,66.0,29.90,ESE,117,2.0,2.0,79,0.00,,,0.00,Wunderground v.1.15,2013-05-20 01:12:00,
2013-05-19 21:21:00,73.1,65.8,29.90,ESE,117,1.0,1.0,78,0.00,,,0.00,Wunderground v.1.15,2013-05-20 01:21:00,
2013-05-19 21:31:00,72.8,65.9,29.90,ESE,117,0.0,0.0,79,0.00,,,0.00,Wunderground v.1.15,2013-05-20 01:31:00,
2013-05-19 21:41:00,72.1,65.6,29.91,ESE,117,0.0,0.0,80,0.00,,,0.00,Wunderground v.1.15,2013-05-20 01:41:00,
2013-05-19 21:51:00,71.7,65.2,29.91,ESE,112,1.0,1.0,80,0.00,,,0.00,Wunderground v.1.15,2013-05-20 01:51:00,
2013-05-19 22:01:00,71.2,65.1,29.91,ESE,112,0.0,0.0,81,0.00,,,0.00,Wunderground v.1.15,2013-05-20 02:01:00,
2013-05-19 22:12:00,70.8,65.0,29.91,ESE,112,0.0,0.0,82,0.00,,,0.00,Wunderground v.1.15,2013-05-20 02:12:00,
2013-05-19 22:21:00,70.8,65.0,29.92,ESE,112,0.0,0.0,82,0.00,,,0.00,Wunderground v.1.15,2013-05-20 02:21:00,
2013-05-19 22:31:00,70.3,64.9,29.92,ESE,112,0.0,0.0,83,0.00,,,0.00,Wunderground v.1.15,2013-05-20 02:31:00,
2013-05-19 22:41:00,69.9,64.5,29.92,ESE,112,0.0,0.0,83,0.00,,,0.00,Wunderground v.1.15,2013-05-20 02:41:00,
2013-05-19 22:51:00,69.7,64.6,29.92,ESE,112,0.0,0.0,84,0.00,,,0.00,Wunderground v.1.15,2013-05-20 02:51:00,
2013-05-19 23:01:00,70.3,64.9,29.92,ESE,112,0.0,0.0,83,0.00,,,0.00,Wunderground v.1.15,2013-05-20 03:01:00,
2013-05-19 23:11:00,70.8,65.4,29.92,SE,125,0.0,0.0,83,0.00,,,0.00,Wunderground v.1.15,2013-05-20 03:11:00,
2013-05-19 23:22:00,70.4,65.0,29.92,SE,125,0.0,0.0,83,0.00,,,0.00,Wunderground v.1.15,2013-05-20 03:22:00,
2013-05-19 23:31:00,70.1,65.0,29.93,SE,125,0.0,0.0,84,0.00,,,0.00,Wunderground v.1.15,2013-05-20 03:31:00,
2013-05-19 23:41:00,69.9,64.8,29.93,SE,125,0.0,0.0,84,0.00,,,0.00,Wunderground v.1.15,2013-05-20 03:41:00,
2013-05-19 23:51:00,70.0,65.3,29.93,SE,125,0.0,0.0,85,0.00,,,0.00,Wunderground v.1.15,2013-05-20 03:51:00,
2013-05-19 23:57:00,70.1,65.7,29.93,SE,125,0.0,2.0,86,0.00,,,0.00,Wunderground v.1.15,2013-05-20 03:57:00,